sensor_id;sensor_type;location;lat;lon;timestamp;temperature;humidity
15713;DHT22;7957;51.608;6.916;2023-05-02T00:01:16;12.70;1.00
15713;DHT22;7957;51.608;6.916;2023-05-02T00:03:43;12.70;1.00
15713;DHT22;7957;51.608;6.916;2023-05-02T00:06:10;12.70;1.00
15713;DHT22;7957;51.608;6.916;2023-05-02T00:08:37;12.70;1.00
15713;DHT22;7957;51.608;6.916;2023-05-02T00:11:04;12.70;1.00
15713;DHT22;7957;51.608;6.916;2023-05-02T00:13:31;12.60;1.00
15713;DHT22;7957;51.608;6.916;2023-05-02T00:16:01;12.60;1.00
15713;DHT22;7957;51.608;6.916;2023-05-02T00:18:27;12.60;1.00
15713;DHT22;7957;51.608;6.916;2023-05-02T00:20:54;12.60;1.00
15713;DHT22;7957;51.608;6.916;2023-05-02T00:23:22;12.60;1.00
15713;DHT22;7957;51.608;6.916;2023-05-02T00:25:49;12.60;1.00
15713;DHT22;7957;51.608;6.916;2023-05-02T00:28:16;12.60;1.00
15713;DHT22;7957;51.608;6.916;2023-05-02T00:30:43;12.70;6.40
15713;DHT22;7957;51.608;6.916;2023-05-02T00:33:11;12.60;25.10
15713;DHT22;7957;51.608;6.916;2023-05-02T00:35:39;12.60;58.00
15713;DHT22;7957;51.608;6.916;2023-05-02T00:38:06;12.60;82.80
15713;DHT22;7957;51.608;6.916;2023-05-02T00:40:42;12.60;98.50
15713;DHT22;7957;51.608;6.916;2023-05-02T00:43:09;12.60;99.90
15713;DHT22;7957;51.608;6.916;2023-05-02T00:45:36;12.60;99.90
15713;DHT22;7957;51.608;6.916;2023-05-02T00:48:05;12.60;99.90
15713;DHT22;7957;51.608;6.916;2023-05-02T00:50:35;12.60;99.90
15713;DHT22;7957;51.608;6.916;2023-05-02T00:53:03;12.60;99.90
15713;DHT22;7957;51.608;6.916;2023-05-02T00:55:31;12.60;99.90
15713;DHT22;7957;51.608;6.916;2023-05-02T00:57:59;12.60;99.90
15713;DHT22;7957;51.608;6.916;2023-05-02T01:00:30;12.60;99.90
15713;DHT22;7957;51.608;6.916;2023-05-02T01:03:07;12.50;99.90
15713;DHT22;7957;51.608;6.916;2023-05-02T01:05:43;12.60;99.90
15713;DHT22;7957;51.608;6.916;2023-05-02T01:08:22;12.50;99.90
15713;DHT22;7957;51.608;6.916;2023-05-02T01:10:58;12.50;99.90
15713;DHT22;7957;51.608;6.916;2023-05-02T01:13:32;12.50;99.90
15713;DHT22;7957;51.608;6.916;2023-05-02T01:16:00;12.50;99.90
15713;DHT22;7957;51.608;6.916;2023-05-02T01:18:31;12.50;99.90
15713;DHT22;7957;51.608;6.916;2023-05-02T01:21:03;12.50;99.90
15713;DHT22;7957;51.608;6.916;2023-05-02T01:23:37;12.50;99.90
15713;DHT22;7957;51.608;6.916;2023-05-02T01:26:14;12.50;99.90
15713;DHT22;7957;51.608;6.916;2023-05-02T01:28:59;12.50;99.90
15713;DHT22;7957;51.608;6.916;2023-05-02T01:31:30;12.50;99.90
15713;DHT22;7957;51.608;6.916;2023-05-02T01:33:59;12.50;1.00
15713;DHT22;7957;51.608;6.916;2023-05-02T01:36:28;12.50;1.00
15713;DHT22;7957;51.608;6.916;2023-05-02T01:38:56;12.50;1.00
15713;DHT22;7957;51.608;6.916;2023-05-02T01:41:26;12.60;1.00
15713;DHT22;7957;51.608;6.916;2023-05-02T01:43:56;12.60;1.00
15713;DHT22;7957;51.608;6.916;2023-05-02T01:46:24;12.60;1.00
15713;DHT22;7957;51.608;6.916;2023-05-02T01:48:53;12.60;1.00
15713;DHT22;7957;51.608;6.916;2023-05-02T01:51:24;12.50;1.00
15713;DHT22;7957;51.608;6.916;2023-05-02T01:53:58;12.50;1.00
15713;DHT22;7957;51.608;6.916;2023-05-02T01:56:28;12.50;1.00
15713;DHT22;7957;51.608;6.916;2023-05-02T01:58:59;12.50;1.00
15713;DHT22;7957;51.608;6.916;2023-05-02T02:01:28;12.60;1.00
15713;DHT22;7957;51.608;6.916;2023-05-02T02:03:57;12.60;1.00
15713;DHT22;7957;51.608;6.916;2023-05-02T02:06:25;12.50;1.00
15713;DHT22;7957;51.608;6.916;2023-05-02T02:08:52;12.60;1.00
15713;DHT22;7957;51.608;6.916;2023-05-02T02:11:23;12.60;1.00
15713;DHT22;7957;51.608;6.916;2023-05-02T02:13:56;12.50;1.00
15713;DHT22;7957;51.608;6.916;2023-05-02T02:16:30;12.50;1.00
15713;DHT22;7957;51.608;6.916;2023-05-02T02:19:05;12.50;1.00
15713;DHT22;7957;51.608;6.916;2023-05-02T02:21:33;12.50;1.00
15713;DHT22;7957;51.608;6.916;2023-05-02T02:24:04;12.50;1.00
15713;DHT22;7957;51.608;6.916;2023-05-02T02:26:32;12.50;1.00
15713;DHT22;7957;51.608;6.916;2023-05-02T02:28:59;12.50;1.00
15713;DHT22;7957;51.608;6.916;2023-05-02T02:31:31;12.50;1.00
15713;DHT22;7957;51.608;6.916;2023-05-02T02:33:58;12.50;1.00
15713;DHT22;7957;51.608;6.916;2023-05-02T02:36:32;12.50;1.00
15713;DHT22;7957;51.608;6.916;2023-05-02T02:39:15;12.50;1.00
15713;DHT22;7957;51.608;6.916;2023-05-02T02:41:49;12.50;1.00
15713;DHT22;7957;51.608;6.916;2023-05-02T02:44:30;12.50;1.00
15713;DHT22;7957;51.608;6.916;2023-05-02T02:47:06;12.50;1.00
15713;DHT22;7957;51.608;6.916;2023-05-02T02:49:44;12.50;1.00
15713;DHT22;7957;51.608;6.916;2023-05-02T02:52:17;12.50;1.00
15713;DHT22;7957;51.608;6.916;2023-05-02T02:54:51;12.50;1.00
15713;DHT22;7957;51.608;6.916;2023-05-02T02:57:27;12.50;1.00
15713;DHT22;7957;51.608;6.916;2023-05-02T03:00:00;12.50;1.00
15713;DHT22;7957;51.608;6.916;2023-05-02T03:02:31;12.50;7.30
15713;DHT22;7957;51.608;6.916;2023-05-02T03:05:00;12.50;17.40
15713;DHT22;7957;51.608;6.916;2023-05-02T03:07:27;12.50;26.70
15713;DHT22;7957;51.608;6.916;2023-05-02T03:09:56;12.50;43.10
15713;DHT22;7957;51.608;6.916;2023-05-02T03:12:23;12.50;63.80
15713;DHT22;7957;51.608;6.916;2023-05-02T03:14:50;12.50;67.00
15713;DHT22;7957;51.608;6.916;2023-05-02T03:17:17;12.50;87.60
15713;DHT22;7957;51.608;6.916;2023-05-02T03:19:45;12.50;93.80
15713;DHT22;7957;51.608;6.916;2023-05-02T03:22:12;12.50;98.10
15713;DHT22;7957;51.608;6.916;2023-05-02T03:24:39;12.50;99.90
15713;DHT22;7957;51.608;6.916;2023-05-02T03:27:06;12.50;99.90
15713;DHT22;7957;51.608;6.916;2023-05-02T03:29:33;12.40;99.90
15713;DHT22;7957;51.608;6.916;2023-05-02T03:32:00;12.50;99.90
15713;DHT22;7957;51.608;6.916;2023-05-02T03:34:26;12.40;99.90
15713;DHT22;7957;51.608;6.916;2023-05-02T03:36:55;12.50;99.90
15713;DHT22;7957;51.608;6.916;2023-05-02T03:39:22;12.50;99.90
15713;DHT22;7957;51.608;6.916;2023-05-02T03:41:48;12.50;99.90
15713;DHT22;7957;51.608;6.916;2023-05-02T03:44:15;12.50;99.90
15713;DHT22;7957;51.608;6.916;2023-05-02T03:46:42;12.50;99.90
15713;DHT22;7957;51.608;6.916;2023-05-02T03:49:09;12.40;99.90
15713;DHT22;7957;51.608;6.916;2023-05-02T03:51:36;12.40;99.90
15713;DHT22;7957;51.608;6.916;2023-05-02T03:54:05;12.40;99.90
15713;DHT22;7957;51.608;6.916;2023-05-02T03:56:32;12.40;99.90
15713;DHT22;7957;51.608;6.916;2023-05-02T03:58:59;12.40;99.90
15713;DHT22;7957;51.608;6.916;2023-05-02T04:01:26;12.40;99.90
15713;DHT22;7957;51.608;6.916;2023-05-02T04:03:53;12.40;99.90
15713;DHT22;7957;51.608;6.916;2023-05-02T04:06:20;12.40;99.90
15713;DHT22;7957;51.608;6.916;2023-05-02T04:08:47;12.40;99.90
15713;DHT22;7957;51.608;6.916;2023-05-02T04:11:16;12.40;99.90
15713;DHT22;7957;51.608;6.916;2023-05-02T04:13:42;12.40;99.90
15713;DHT22;7957;51.608;6.916;2023-05-02T04:16:09;12.40;1.00
15713;DHT22;7957;51.608;6.916;2023-05-02T04:18:37;12.40;1.00
15713;DHT22;7957;51.608;6.916;2023-05-02T04:21:03;12.30;1.00
15713;DHT22;7957;51.608;6.916;2023-05-02T04:23:32;12.30;1.00
15713;DHT22;7957;51.608;6.916;2023-05-02T04:25:59;12.30;1.00
15713;DHT22;7957;51.608;6.916;2023-05-02T04:28:28;12.30;1.00
15713;DHT22;7957;51.608;6.916;2023-05-02T04:30:55;12.30;1.00
15713;DHT22;7957;51.608;6.916;2023-05-02T04:33:22;12.30;1.00
15713;DHT22;7957;51.608;6.916;2023-05-02T04:35:49;12.20;1.00
15713;DHT22;7957;51.608;6.916;2023-05-02T04:38:17;12.30;1.00
15713;DHT22;7957;51.608;6.916;2023-05-02T04:40:44;12.20;1.00
15713;DHT22;7957;51.608;6.916;2023-05-02T04:43:11;12.20;1.00
15713;DHT22;7957;51.608;6.916;2023-05-02T04:45:39;12.20;1.00
15713;DHT22;7957;51.608;6.916;2023-05-02T04:48:07;12.20;1.00
15713;DHT22;7957;51.608;6.916;2023-05-02T04:50:34;12.20;1.00
15713;DHT22;7957;51.608;6.916;2023-05-02T04:53:01;12.20;1.00
15713;DHT22;7957;51.608;6.916;2023-05-02T04:55:28;12.20;21.00
15713;DHT22;7957;51.608;6.916;2023-05-02T04:57:55;12.20;57.90
15713;DHT22;7957;51.608;6.916;2023-05-02T05:00:22;12.20;96.00
15713;DHT22;7957;51.608;6.916;2023-05-02T05:02:50;12.20;99.90
15713;DHT22;7957;51.608;6.916;2023-05-02T05:05:18;12.20;99.90
15713;DHT22;7957;51.608;6.916;2023-05-02T05:07:44;12.20;99.90
15713;DHT22;7957;51.608;6.916;2023-05-02T05:10:11;12.20;99.90
15713;DHT22;7957;51.608;6.916;2023-05-02T05:12:38;12.10;99.90
15713;DHT22;7957;51.608;6.916;2023-05-02T05:15:06;12.10;99.90
15713;DHT22;7957;51.608;6.916;2023-05-02T05:17:33;12.10;99.90
15713;DHT22;7957;51.608;6.916;2023-05-02T05:20:02;12.10;99.90
15713;DHT22;7957;51.608;6.916;2023-05-02T05:22:29;12.10;99.90
15713;DHT22;7957;51.608;6.916;2023-05-02T05:24:56;12.10;99.90
15713;DHT22;7957;51.608;6.916;2023-05-02T05:27:23;12.10;99.90
15713;DHT22;7957;51.608;6.916;2023-05-02T05:29:50;12.10;99.90
15713;DHT22;7957;51.608;6.916;2023-05-02T05:32:17;12.10;99.90
15713;DHT22;7957;51.608;6.916;2023-05-02T05:34:45;12.10;99.90
15713;DHT22;7957;51.608;6.916;2023-05-02T05:37:13;12.10;99.90
15713;DHT22;7957;51.608;6.916;2023-05-02T05:39:40;12.10;99.90
15713;DHT22;7957;51.608;6.916;2023-05-02T05:42:07;12.10;99.90
15713;DHT22;7957;51.608;6.916;2023-05-02T05:44:34;12.10;99.90
15713;DHT22;7957;51.608;6.916;2023-05-02T05:47:01;12.10;99.90
15713;DHT22;7957;51.608;6.916;2023-05-02T05:49:29;12.10;99.90
15713;DHT22;7957;51.608;6.916;2023-05-02T05:51:56;12.10;99.90
15713;DHT22;7957;51.608;6.916;2023-05-02T05:54:24;12.10;99.90
15713;DHT22;7957;51.608;6.916;2023-05-02T05:56:51;12.10;1.00
15713;DHT22;7957;51.608;6.916;2023-05-02T05:59:18;12.10;1.00
15713;DHT22;7957;51.608;6.916;2023-05-02T06:01:45;12.20;1.00
15713;DHT22;7957;51.608;6.916;2023-05-02T06:04:11;12.20;1.00
15713;DHT22;7957;51.608;6.916;2023-05-02T06:06:38;12.20;1.00
15713;DHT22;7957;51.608;6.916;2023-05-02T06:09:06;12.20;1.00
15713;DHT22;7957;51.608;6.916;2023-05-02T06:11:35;12.20;1.00
15713;DHT22;7957;51.608;6.916;2023-05-02T06:14:02;12.20;1.00
15713;DHT22;7957;51.608;6.916;2023-05-02T06:16:30;12.20;1.00
15713;DHT22;7957;51.608;6.916;2023-05-02T06:18:57;12.20;1.00
15713;DHT22;7957;51.608;6.916;2023-05-02T06:21:26;12.20;1.00
15713;DHT22;7957;51.608;6.916;2023-05-02T06:23:53;12.20;1.00
15713;DHT22;7957;51.608;6.916;2023-05-02T06:26:20;12.20;1.00
15713;DHT22;7957;51.608;6.916;2023-05-02T06:28:48;12.20;1.00
15713;DHT22;7957;51.608;6.916;2023-05-02T06:31:15;12.20;1.00
15713;DHT22;7957;51.608;6.916;2023-05-02T06:33:42;12.20;1.00
15713;DHT22;7957;51.608;6.916;2023-05-02T06:36:09;12.20;99.90
15713;DHT22;7957;51.608;6.916;2023-05-02T06:38:36;12.30;99.90
15713;DHT22;7957;51.608;6.916;2023-05-02T06:41:02;12.30;99.90
15713;DHT22;7957;51.608;6.916;2023-05-02T06:43:30;12.20;99.90
15713;DHT22;7957;51.608;6.916;2023-05-02T06:46:00;12.30;99.90
15713;DHT22;7957;51.608;6.916;2023-05-02T06:48:27;12.30;99.90
15713;DHT22;7957;51.608;6.916;2023-05-02T06:50:54;12.30;99.90
15713;DHT22;7957;51.608;6.916;2023-05-02T06:53:20;12.20;99.90
15713;DHT22;7957;51.608;6.916;2023-05-02T06:55:48;12.20;99.90
15713;DHT22;7957;51.608;6.916;2023-05-02T06:58:15;12.20;99.90
15713;DHT22;7957;51.608;6.916;2023-05-02T07:00:42;12.10;99.90
15713;DHT22;7957;51.608;6.916;2023-05-02T07:03:10;12.10;99.90
15713;DHT22;7957;51.608;6.916;2023-05-02T07:05:37;12.10;99.90
15713;DHT22;7957;51.608;6.916;2023-05-02T07:08:09;12.10;99.90
15713;DHT22;7957;51.608;6.916;2023-05-02T07:10:37;12.10;99.90
15713;DHT22;7957;51.608;6.916;2023-05-02T07:13:04;12.20;99.90
15713;DHT22;7957;51.608;6.916;2023-05-02T07:15:35;12.10;99.90
15713;DHT22;7957;51.608;6.916;2023-05-02T07:18:05;12.20;99.90
15713;DHT22;7957;51.608;6.916;2023-05-02T07:20:42;12.20;99.90
15713;DHT22;7957;51.608;6.916;2023-05-02T07:23:16;12.20;99.90
15713;DHT22;7957;51.608;6.916;2023-05-02T07:25:43;12.20;99.90
15713;DHT22;7957;51.608;6.916;2023-05-02T07:28:10;12.20;99.90
15713;DHT22;7957;51.608;6.916;2023-05-02T07:30:37;12.20;99.90
15713;DHT22;7957;51.608;6.916;2023-05-02T07:33:04;12.20;99.90
15713;DHT22;7957;51.608;6.916;2023-05-02T07:35:31;12.20;99.90
15713;DHT22;7957;51.608;6.916;2023-05-02T07:38:00;12.30;99.90
15713;DHT22;7957;51.608;6.916;2023-05-02T07:40:27;12.30;99.90
15713;DHT22;7957;51.608;6.916;2023-05-02T07:42:57;12.30;99.90
15713;DHT22;7957;51.608;6.916;2023-05-02T07:45:36;12.30;99.90
15713;DHT22;7957;51.608;6.916;2023-05-02T07:48:03;12.30;99.90
15713;DHT22;7957;51.608;6.916;2023-05-02T07:50:30;12.30;99.90
15713;DHT22;7957;51.608;6.916;2023-05-02T07:52:57;12.30;99.90
15713;DHT22;7957;51.608;6.916;2023-05-02T07:55:41;12.30;99.90
15713;DHT22;7957;51.608;6.916;2023-05-02T07:58:19;12.30;89.20
15713;DHT22;7957;51.608;6.916;2023-05-02T08:00:49;12.30;36.80
15713;DHT22;7957;51.608;6.916;2023-05-02T08:03:16;12.40;1.00
15713;DHT22;7957;51.608;6.916;2023-05-02T08:05:51;12.30;1.00
15713;DHT22;7957;51.608;6.916;2023-05-02T08:08:18;12.30;1.00
15713;DHT22;7957;51.608;6.916;2023-05-02T08:10:46;12.30;1.00
15713;DHT22;7957;51.608;6.916;2023-05-02T08:13:15;12.40;1.00
15713;DHT22;7957;51.608;6.916;2023-05-02T08:15:42;12.30;1.00
15713;DHT22;7957;51.608;6.916;2023-05-02T08:18:13;12.40;1.00
15713;DHT22;7957;51.608;6.916;2023-05-02T08:20:42;12.30;1.00
15713;DHT22;7957;51.608;6.916;2023-05-02T08:23:09;12.40;1.00
15713;DHT22;7957;51.608;6.916;2023-05-02T08:25:36;12.40;1.00
15713;DHT22;7957;51.608;6.916;2023-05-02T08:28:04;12.40;1.00
15713;DHT22;7957;51.608;6.916;2023-05-02T08:30:31;12.40;1.00
15713;DHT22;7957;51.608;6.916;2023-05-02T08:32:58;12.40;1.00
15713;DHT22;7957;51.608;6.916;2023-05-02T08:35:27;12.40;1.00
15713;DHT22;7957;51.608;6.916;2023-05-02T08:37:54;12.40;1.00
15713;DHT22;7957;51.608;6.916;2023-05-02T08:40:22;12.50;1.00
15713;DHT22;7957;51.608;6.916;2023-05-02T08:42:51;12.40;1.00
15713;DHT22;7957;51.608;6.916;2023-05-02T08:45:19;12.40;1.00
15713;DHT22;7957;51.608;6.916;2023-05-02T08:47:48;12.40;1.00
15713;DHT22;7957;51.608;6.916;2023-05-02T08:50:16;12.40;1.00
15713;DHT22;7957;51.608;6.916;2023-05-02T08:52:45;12.40;99.90
15713;DHT22;7957;51.608;6.916;2023-05-02T08:55:12;12.40;99.90
15713;DHT22;7957;51.608;6.916;2023-05-02T08:57:40;12.40;99.90
15713;DHT22;7957;51.608;6.916;2023-05-02T09:00:10;12.40;99.90
15713;DHT22;7957;51.608;6.916;2023-05-02T09:02:48;12.50;99.90
15713;DHT22;7957;51.608;6.916;2023-05-02T09:05:19;12.60;99.90
15713;DHT22;7957;51.608;6.916;2023-05-02T09:07:50;12.60;99.90
15713;DHT22;7957;51.608;6.916;2023-05-02T09:10:17;12.70;99.90
15713;DHT22;7957;51.608;6.916;2023-05-02T09:12:44;12.80;99.90
15713;DHT22;7957;51.608;6.916;2023-05-02T09:15:13;12.90;99.90
15713;DHT22;7957;51.608;6.916;2023-05-02T09:17:43;13.00;99.90
15713;DHT22;7957;51.608;6.916;2023-05-02T09:20:11;13.10;99.90
15713;DHT22;7957;51.608;6.916;2023-05-02T09:22:38;13.20;99.90
15713;DHT22;7957;51.608;6.916;2023-05-02T09:25:13;13.30;99.90
15713;DHT22;7957;51.608;6.916;2023-05-02T09:27:54;13.30;95.50
15713;DHT22;7957;51.608;6.916;2023-05-02T09:30:24;13.40;28.60
15713;DHT22;7957;51.608;6.916;2023-05-02T09:32:53;13.50;1.00
15713;DHT22;7957;51.608;6.916;2023-05-02T09:35:20;13.60;1.00
15713;DHT22;7957;51.608;6.916;2023-05-02T09:37:52;13.70;1.00
15713;DHT22;7957;51.608;6.916;2023-05-02T09:40:19;13.80;1.00
15713;DHT22;7957;51.608;6.916;2023-05-02T09:42:47;13.90;1.00
15713;DHT22;7957;51.608;6.916;2023-05-02T09:45:19;14.00;1.00
15713;DHT22;7957;51.608;6.916;2023-05-02T09:47:47;14.20;1.00
15713;DHT22;7957;51.608;6.916;2023-05-02T09:50:34;14.30;1.00
15713;DHT22;7957;51.608;6.916;2023-05-02T09:53:03;14.40;99.90
15713;DHT22;7957;51.608;6.916;2023-05-02T09:55:30;14.40;99.90
15713;DHT22;7957;51.608;6.916;2023-05-02T09:57:57;14.40;99.90
15713;DHT22;7957;51.608;6.916;2023-05-02T10:00:37;14.40;99.90
15713;DHT22;7957;51.608;6.916;2023-05-02T10:03:06;14.40;99.90
15713;DHT22;7957;51.608;6.916;2023-05-02T10:05:35;14.40;99.90
15713;DHT22;7957;51.608;6.916;2023-05-02T10:08:04;14.40;99.90
15713;DHT22;7957;51.608;6.916;2023-05-02T10:10:32;14.40;99.90
15713;DHT22;7957;51.608;6.916;2023-05-02T10:13:03;14.40;88.00
15713;DHT22;7957;51.608;6.916;2023-05-02T10:15:30;14.40;26.60
15713;DHT22;7957;51.608;6.916;2023-05-02T10:17:59;14.40;1.00
15713;DHT22;7957;51.608;6.916;2023-05-02T10:20:30;14.40;1.00
15713;DHT22;7957;51.608;6.916;2023-05-02T10:23:00;14.40;1.00
15713;DHT22;7957;51.608;6.916;2023-05-02T10:25:27;14.50;1.00
15713;DHT22;7957;51.608;6.916;2023-05-02T10:27:56;14.50;1.00
15713;DHT22;7957;51.608;6.916;2023-05-02T10:30:24;14.50;1.00
15713;DHT22;7957;51.608;6.916;2023-05-02T10:32:52;14.60;1.00
15713;DHT22;7957;51.608;6.916;2023-05-02T10:35:20;14.60;1.00
15713;DHT22;7957;51.608;6.916;2023-05-02T10:37:49;14.60;1.00
15713;DHT22;7957;51.608;6.916;2023-05-02T10:40:18;14.70;1.00
15713;DHT22;7957;51.608;6.916;2023-05-02T10:42:47;14.80;99.90
15713;DHT22;7957;51.608;6.916;2023-05-02T10:45:30;14.90;99.90
15713;DHT22;7957;51.608;6.916;2023-05-02T10:48:18;15.20;99.90
15713;DHT22;7957;51.608;6.916;2023-05-02T10:50:47;15.40;99.90
15713;DHT22;7957;51.608;6.916;2023-05-02T10:53:37;15.50;99.90
15713;DHT22;7957;51.608;6.916;2023-05-02T10:56:11;15.50;99.90
15713;DHT22;7957;51.608;6.916;2023-05-02T10:58:38;15.50;99.90
15713;DHT22;7957;51.608;6.916;2023-05-02T11:01:33;15.50;99.90
15713;DHT22;7957;51.608;6.916;2023-05-02T11:04:03;15.50;99.90
15713;DHT22;7957;51.608;6.916;2023-05-02T11:06:31;15.50;92.90
15713;DHT22;7957;51.608;6.916;2023-05-02T11:12:01;15.50;44.10
15713;DHT22;7957;51.608;6.916;2023-05-02T11:14:48;15.50;12.10
15713;DHT22;7957;51.608;6.916;2023-05-02T11:17:18;15.50;1.00
15713;DHT22;7957;51.608;6.916;2023-05-02T11:22:56;15.40;1.00
15713;DHT22;7957;51.608;6.916;2023-05-02T11:25:32;15.40;1.00
15713;DHT22;7957;51.608;6.916;2023-05-02T11:28:01;15.40;1.00
15713;DHT22;7957;51.608;6.916;2023-05-02T11:30:39;15.40;1.00
15713;DHT22;7957;51.608;6.916;2023-05-02T11:33:17;15.50;1.00
15713;DHT22;7957;51.608;6.916;2023-05-02T11:35:46;15.50;1.00
15713;DHT22;7957;51.608;6.916;2023-05-02T11:38:19;15.60;1.00
15713;DHT22;7957;51.608;6.916;2023-05-02T11:40:54;15.70;1.00
15713;DHT22;7957;51.608;6.916;2023-05-02T11:43:24;15.80;1.00
15713;DHT22;7957;51.608;6.916;2023-05-02T11:45:51;15.90;1.00
15713;DHT22;7957;51.608;6.916;2023-05-02T11:48:20;15.90;1.00
15713;DHT22;7957;51.608;6.916;2023-05-02T11:50:48;16.00;1.00
15713;DHT22;7957;51.608;6.916;2023-05-02T11:53:16;16.30;1.00
15713;DHT22;7957;51.608;6.916;2023-05-02T11:55:45;16.40;1.00
15713;DHT22;7957;51.608;6.916;2023-05-02T11:58:12;16.50;1.00
15713;DHT22;7957;51.608;6.916;2023-05-02T12:00:42;16.50;99.90
15713;DHT22;7957;51.608;6.916;2023-05-02T12:03:19;16.50;99.90
15713;DHT22;7957;51.608;6.916;2023-05-02T12:05:46;16.50;99.90
15713;DHT22;7957;51.608;6.916;2023-05-02T12:08:18;16.40;99.90
15713;DHT22;7957;51.608;6.916;2023-05-02T12:10:45;16.40;99.90
15713;DHT22;7957;51.608;6.916;2023-05-02T12:13:12;16.50;99.90
15713;DHT22;7957;51.608;6.916;2023-05-02T12:15:40;16.70;99.90
15713;DHT22;7957;51.608;6.916;2023-05-02T12:18:08;17.00;99.90
15713;DHT22;7957;51.608;6.916;2023-05-02T12:20:35;17.60;99.90
15713;DHT22;7957;51.608;6.916;2023-05-02T12:23:03;18.20;99.90
15713;DHT22;7957;51.608;6.916;2023-05-02T12:25:31;18.40;99.90
15713;DHT22;7957;51.608;6.916;2023-05-02T12:27:58;18.40;99.90
15713;DHT22;7957;51.608;6.916;2023-05-02T12:30:26;18.40;99.90
15713;DHT22;7957;51.608;6.916;2023-05-02T12:32:57;18.70;99.90
15713;DHT22;7957;51.608;6.916;2023-05-02T12:35:24;19.10;99.90
15713;DHT22;7957;51.608;6.916;2023-05-02T12:37:52;19.50;99.90
15713;DHT22;7957;51.608;6.916;2023-05-02T12:40:19;19.80;99.90
15713;DHT22;7957;51.608;6.916;2023-05-02T12:42:57;19.90;99.90
15713;DHT22;7957;51.608;6.916;2023-05-02T12:45:25;19.90;99.90
15713;DHT22;7957;51.608;6.916;2023-05-02T12:47:53;19.70;99.90
15713;DHT22;7957;51.608;6.916;2023-05-02T12:50:34;19.60;77.10
15713;DHT22;7957;51.608;6.916;2023-05-02T12:53:01;19.40;28.30
15713;DHT22;7957;51.608;6.916;2023-05-02T12:55:28;19.30;1.00
15713;DHT22;7957;51.608;6.916;2023-05-02T12:58:00;19.40;1.00
15713;DHT22;7957;51.608;6.916;2023-05-02T13:00:27;19.50;1.00
15713;DHT22;7957;51.608;6.916;2023-05-02T13:02:54;19.60;1.00
15713;DHT22;7957;51.608;6.916;2023-05-02T13:05:23;19.70;1.00
15713;DHT22;7957;51.608;6.916;2023-05-02T13:07:51;19.70;1.00
15713;DHT22;7957;51.608;6.916;2023-05-02T13:10:21;19.80;1.00
15713;DHT22;7957;51.608;6.916;2023-05-02T13:12:49;19.80;1.00
15713;DHT22;7957;51.608;6.916;2023-05-02T13:15:16;19.70;1.00
15713;DHT22;7957;51.608;6.916;2023-05-02T13:17:43;19.70;1.00
15713;DHT22;7957;51.608;6.916;2023-05-02T13:20:52;19.70;1.00
15713;DHT22;7957;51.608;6.916;2023-05-02T13:23:19;19.60;1.00
15713;DHT22;7957;51.608;6.916;2023-05-02T13:25:46;19.50;1.00
15713;DHT22;7957;51.608;6.916;2023-05-02T13:28:13;19.50;1.00
15713;DHT22;7957;51.608;6.916;2023-05-02T13:30:41;19.40;1.00
15713;DHT22;7957;51.608;6.916;2023-05-02T13:33:08;19.30;1.00
15713;DHT22;7957;51.608;6.916;2023-05-02T13:35:35;19.20;1.00
15713;DHT22;7957;51.608;6.916;2023-05-02T13:38:04;19.20;1.00
15713;DHT22;7957;51.608;6.916;2023-05-02T13:40:37;19.20;1.00
15713;DHT22;7957;51.608;6.916;2023-05-02T13:43:04;19.20;1.00
15713;DHT22;7957;51.608;6.916;2023-05-02T13:45:31;19.30;1.00
15713;DHT22;7957;51.608;6.916;2023-05-02T13:47:58;19.30;1.00
15713;DHT22;7957;51.608;6.916;2023-05-02T13:50:25;19.30;1.00
15713;DHT22;7957;51.608;6.916;2023-05-02T13:52:52;19.20;99.90
15713;DHT22;7957;51.608;6.916;2023-05-02T13:55:20;19.10;99.90
15713;DHT22;7957;51.608;6.916;2023-05-02T13:57:50;19.00;99.90
15713;DHT22;7957;51.608;6.916;2023-05-02T14:00:18;18.90;99.90
15713;DHT22;7957;51.608;6.916;2023-05-02T14:02:45;18.90;99.90
15713;DHT22;7957;51.608;6.916;2023-05-02T14:05:12;18.80;99.90
15713;DHT22;7957;51.608;6.916;2023-05-02T14:07:39;18.80;99.90
15713;DHT22;7957;51.608;6.916;2023-05-02T14:10:07;18.70;99.90
15713;DHT22;7957;51.608;6.916;2023-05-02T14:12:36;18.60;99.90
15713;DHT22;7957;51.608;6.916;2023-05-02T14:15:03;18.40;99.90
15713;DHT22;7957;51.608;6.916;2023-05-02T14:17:30;18.40;99.90
15713;DHT22;7957;51.608;6.916;2023-05-02T14:19:57;18.20;99.90
15713;DHT22;7957;51.608;6.916;2023-05-02T14:22:24;18.30;99.90
15713;DHT22;7957;51.608;6.916;2023-05-02T14:24:51;18.10;99.90
15713;DHT22;7957;51.608;6.916;2023-05-02T14:27:18;18.00;99.90
15713;DHT22;7957;51.608;6.916;2023-05-02T14:29:47;17.90;99.90
15713;DHT22;7957;51.608;6.916;2023-05-02T14:32:14;17.90;99.90
15713;DHT22;7957;51.608;6.916;2023-05-02T14:34:41;17.80;99.90
15713;DHT22;7957;51.608;6.916;2023-05-02T14:37:08;17.70;99.90
15713;DHT22;7957;51.608;6.916;2023-05-02T14:39:35;17.60;99.90
15713;DHT22;7957;51.608;6.916;2023-05-02T14:42:03;17.60;99.90
15713;DHT22;7957;51.608;6.916;2023-05-02T14:44:30;17.60;99.90
15713;DHT22;7957;51.608;6.916;2023-05-02T14:46:59;17.50;99.90
15713;DHT22;7957;51.608;6.916;2023-05-02T14:49:26;17.50;99.90
15713;DHT22;7957;51.608;6.916;2023-05-02T14:51:53;17.50;99.90
15713;DHT22;7957;51.608;6.916;2023-05-02T14:54:25;17.40;99.90
15713;DHT22;7957;51.608;6.916;2023-05-02T14:56:52;17.40;99.90
15713;DHT22;7957;51.608;6.916;2023-05-02T14:59:19;17.30;99.90
15713;DHT22;7957;51.608;6.916;2023-05-02T15:01:46;17.30;99.90
15713;DHT22;7957;51.608;6.916;2023-05-02T15:04:14;17.30;99.90
15713;DHT22;7957;51.608;6.916;2023-05-02T15:06:42;17.30;94.10
15713;DHT22;7957;51.608;6.916;2023-05-02T15:09:09;17.30;89.80
15713;DHT22;7957;51.608;6.916;2023-05-02T15:11:36;17.30;86.40
15713;DHT22;7957;51.608;6.916;2023-05-02T15:14:03;17.30;68.90
15713;DHT22;7957;51.608;6.916;2023-05-02T15:16:30;17.30;60.60
15713;DHT22;7957;51.608;6.916;2023-05-02T15:18:57;17.30;60.80
15713;DHT22;7957;51.608;6.916;2023-05-02T15:21:25;17.30;62.10
15713;DHT22;7957;51.608;6.916;2023-05-02T15:23:53;17.30;54.50
15713;DHT22;7957;51.608;6.916;2023-05-02T15:26:21;17.20;42.50
15713;DHT22;7957;51.608;6.916;2023-05-02T15:28:48;17.20;37.30
15713;DHT22;7957;51.608;6.916;2023-05-02T15:31:15;17.10;30.90
15713;DHT22;7957;51.608;6.916;2023-05-02T15:33:42;17.10;26.80
15713;DHT22;7957;51.608;6.916;2023-05-02T15:36:09;17.00;23.90
15713;DHT22;7957;51.608;6.916;2023-05-02T15:38:37;17.00;11.10
15713;DHT22;7957;51.608;6.916;2023-05-02T15:41:07;17.00;9.70
15713;DHT22;7957;51.608;6.916;2023-05-02T15:43:34;16.90;6.80
15713;DHT22;7957;51.608;6.916;2023-05-02T15:46:01;16.80;4.10
15713;DHT22;7957;51.608;6.916;2023-05-02T15:48:30;16.80;5.10
15713;DHT22;7957;51.608;6.916;2023-05-02T15:50:58;16.70;4.50
15713;DHT22;7957;51.608;6.916;2023-05-02T15:53:24;16.70;2.10
15713;DHT22;7957;51.608;6.916;2023-05-02T15:55:53;16.70;1.00
15713;DHT22;7957;51.608;6.916;2023-05-02T15:58:20;16.60;1.00
15713;DHT22;7957;51.608;6.916;2023-05-02T16:00:47;16.60;1.00
15713;DHT22;7957;51.608;6.916;2023-05-02T16:03:14;16.50;1.00
15713;DHT22;7957;51.608;6.916;2023-05-02T16:05:40;16.40;1.00
15713;DHT22;7957;51.608;6.916;2023-05-02T16:08:07;16.30;1.00
15713;DHT22;7957;51.608;6.916;2023-05-02T16:10:34;16.20;1.00